Time;durP1;ratioP1;P1;durP2;ratioP2;P2;SDS_P1;SDS_P2;PMS_P1;PMS_P2;Temp;Humidity;BMP_temperature;BMP_pressure;BME280_temperature;BME280_humidity;BME280_pressure;Samples;Min_cycle;Max_cycle;Signal;HPM_P1;HPM_P2
2024/02/16 00:02:02;;;;;;;3.80;3.50;;;20.00;77.60;;;;;;4999493;28;20472;-76
2024/02/16 00:04:31;;;;;;;3.37;3.03;;;20.00;77.50;;;;;;4996852;28;20444;-74
2024/02/16 00:06:59;;;;;;;8.97;3.90;;;20.10;77.50;;;;;;4992191;28;20470;-75
2024/02/16 00:09:27;;;;;;;3.53;3.23;;;20.00;77.30;;;;;;4993216;28;20526;-75
2024/02/16 00:11:55;;;;;;;3.63;3.33;;;20.00;77.30;;;;;;4997384;28;20477;-76
2024/02/16 00:14:23;;;;;;;4.80;3.77;;;20.00;77.40;;;;;;4987140;28;20433;-75
2024/02/16 00:16:51;;;;;;;4.20;3.60;;;20.00;77.30;;;;;;5036268;22;20605;-77
2024/02/16 00:19:18;;;;;;;6.80;4.03;;;20.00;77.40;;;;;;5024595;28;20517;-77
2024/02/16 00:21:48;;;;;;;5.40;3.67;;;20.00;77.20;;;;;;5021742;28;20522;-77
2024/02/16 00:24:16;;;;;;;3.70;3.30;;;20.00;77.10;;;;;;5026655;28;20435;-77
2024/02/16 00:26:45;;;;;;;3.80;3.50;;;20.00;77.00;;;;;;5021312;28;20456;-77
2024/02/16 00:29:13;;;;;;;4.00;3.53;;;20.00;76.80;;;;;;5024578;28;20519;-77
2024/02/16 00:31:41;;;;;;;3.70;3.40;;;20.00;77.10;;;;;;5033727;28;20467;-76
2024/02/16 00:34:09;;;;;;;3.60;3.30;;;20.00;77.30;;;;;;5039259;28;20439;-77
2024/02/16 00:36:37;;;;;;;5.77;3.50;;;20.00;77.00;;;;;;5049307;28;20476;-77
2024/02/16 00:39:06;;;;;;;5.53;3.20;;;20.00;77.10;;;;;;5035217;28;20475;-77
2024/02/16 00:41:34;;;;;;;5.40;3.50;;;20.00;76.90;;;;;;5042832;28;20438;-77
2024/02/16 00:44:02;;;;;;;5.33;3.60;;;20.00;77.00;;;;;;5045401;28;20494;-77
2024/02/16 00:46:31;;;;;;;3.67;3.37;;;20.00;77.10;;;;;;5033915;28;20478;-77
2024/02/16 00:48:59;;;;;;;6.40;3.23;;;20.00;77.00;;;;;;5030951;28;20512;-76
2024/02/16 00:51:29;;;;;;;3.30;3.10;;;20.00;77.10;;;;;;5027850;28;20435;-78
2024/02/16 00:53:57;;;;;;;3.17;2.97;;;19.90;76.70;;;;;;5033713;28;20446;-78
2024/02/16 00:56:27;;;;;;;3.40;3.10;;;20.00;76.80;;;;;;5033315;28;20490;-78
2024/02/16 00:58:55;;;;;;;3.30;3.00;;;20.00;76.60;;;;;;5033174;28;20577;-79
2024/02/16 01:01:25;;;;;;;3.27;3.00;;;19.90;76.40;;;;;;5032788;28;20472;-78
2024/02/16 01:03:53;;;;;;;3.93;3.30;;;20.00;76.90;;;;;;5028572;28;20446;-77
2024/02/16 01:06:21;;;;;;;5.10;3.50;;;20.00;76.80;;;;;;5021434;28;20514;-78
2024/02/16 01:08:49;;;;;;;3.50;3.20;;;19.90;76.50;;;;;;5032917;28;20443;-77
2024/02/16 01:11:19;;;;;;;3.60;3.30;;;20.00;76.60;;;;;;5043433;28;20453;-77
2024/02/16 01:13:48;;;;;;;3.30;2.93;;;20.00;76.60;;;;;;5040750;28;20447;-77
2024/02/16 01:16:17;;;;;;;3.17;2.97;;;19.90;76.20;;;;;;5031977;28;20465;-77
2024/02/16 01:18:45;;;;;;;3.87;3.33;;;19.90;76.30;;;;;;5036480;28;20570;-77
2024/02/16 01:21:13;;;;;;;3.33;3.07;;;19.90;76.50;;;;;;5038871;28;20965;-80
2024/02/16 01:23:41;;;;;;;3.10;2.70;;;19.90;76.60;;;;;;5036104;28;20442;-81
2024/02/16 01:26:09;;;;;;;4.10;3.40;;;19.90;76.40;;;;;;5031667;28;20536;-78
2024/02/16 01:28:36;;;;;;;3.37;3.17;;;19.90;76.40;;;;;;5031888;28;20468;-77
2024/02/16 01:31:06;;;;;;;4.73;3.40;;;19.90;76.20;;;;;;5039228;28;20535;-76
2024/02/16 01:33:35;;;;;;;5.90;3.37;;;19.90;76.20;;;;;;5031572;28;20479;-78
2024/02/16 01:36:04;;;;;;;4.20;3.10;;;19.90;76.30;;;;;;5024700;28;20506;-78
2024/02/16 01:38:32;;;;;;;3.30;3.00;;;19.90;76.10;;;;;;5035971;28;20467;-77
2024/02/16 01:41:01;;;;;;;4.10;2.67;;;19.90;76.20;;;;;;5031250;28;20506;-76
2024/02/16 01:43:29;;;;;;;3.17;2.73;;;19.90;76.30;;;;;;5031977;28;20435;-76
2024/02/16 01:45:59;;;;;;;3.10;2.73;;;19.90;76.30;;;;;;5033619;28;20474;-79
2024/02/16 01:48:29;;;;;;;4.23;3.23;;;19.90;76.10;;;;;;5032639;28;20435;-79
2024/02/16 01:50:57;;;;;;;2.83;2.63;;;19.90;76.10;;;;;;5032919;28;20435;-75
2024/02/16 01:53:25;;;;;;;3.43;3.10;;;19.90;76.00;;;;;;5030345;28;20930;-77
2024/02/16 01:55:54;;;;;;;4.03;2.90;;;19.90;76.10;;;;;;5040012;28;20497;-78
2024/02/16 01:58:22;;;;;;;3.80;2.60;;;19.90;76.10;;;;;;5032598;28;20471;-77
2024/02/16 02:00:50;;;;;;;3.13;2.63;;;19.90;77.10;;;;;;5033394;28;20504;-78
2024/02/16 02:03:18;;;;;;;3.53;3.23;;;19.90;76.00;;;;;;5034664;28;20448;-78
2024/02/16 02:05:49;;;;;;;2.90;2.70;;;19.90;75.80;;;;;;5036858;28;20475;-77
2024/02/16 02:08:18;;;;;;;3.33;3.03;;;19.90;76.10;;;;;;5028954;28;20534;-79
2024/02/16 02:10:46;;;;;;;3.03;2.83;;;19.90;76.00;;;;;;5031307;28;20444;-79
2024/02/16 02:13:15;;;;;;;3.07;2.80;;;19.90;76.00;;;;;;5024701;28;20443;-79
2024/02/16 02:15:42;;;;;;;3.20;2.97;;;19.90;76.00;;;;;;5029089;28;20852;-78
2024/02/16 02:18:11;;;;;;;2.87;2.67;;;19.90;75.90;;;;;;5031402;28;20498;-76
2024/02/16 02:20:39;;;;;;;4.80;3.20;;;19.90;75.80;;;;;;5031766;28;20475;-77
2024/02/16 02:23:08;;;;;;;3.00;2.70;;;19.90;76.00;;;;;;5031541;28;20627;-75
2024/02/16 02:25:37;;;;;;;3.27;3.07;;;19.90;75.90;;;;;;5031559;28;20442;-77
2024/02/16 02:28:06;;;;;;;3.23;2.93;;;19.90;75.70;;;;;;5031265;28;20480;-77
2024/02/16 02:30:34;;;;;;;3.10;2.90;;;19.90;75.70;;;;;;5030358;28;20436;-77
2024/02/16 02:33:02;;;;;;;4.10;3.03;;;19.90;75.80;;;;;;5031491;28;20443;-77
2024/02/16 02:35:30;;;;;;;4.83;3.03;;;19.90;75.80;;;;;;5038344;28;20435;-77
2024/02/16 02:37:57;;;;;;;3.23;2.87;;;19.80;75.70;;;;;;5031509;28;20467;-77
2024/02/16 02:40:27;;;;;;;3.00;2.80;;;19.90;75.70;;;;;;5031015;28;20980;-77
2024/02/16 02:42:55;;;;;;;3.23;2.47;;;19.90;75.60;;;;;;5039684;28;20431;-77
2024/02/16 02:45:23;;;;;;;2.77;2.60;;;19.90;75.70;;;;;;5048443;28;20537;-77
2024/02/16 02:47:51;;;;;;;3.00;2.70;;;19.90;75.70;;;;;;5042161;28;20447;-77
2024/02/16 02:50:19;;;;;;;3.40;2.70;;;19.80;75.50;;;;;;5032625;28;20478;-78
2024/02/16 02:52:47;;;;;;;3.37;2.57;;;19.80;75.70;;;;;;5035874;28;20517;-76
2024/02/16 02:55:15;;;;;;;3.03;2.63;;;19.90;75.70;;;;;;5029077;28;20514;-77
2024/02/16 02:57:44;;;;;;;13.70;3.27;;;19.80;75.50;;;;;;5027620;28;20479;-74
2024/02/16 03:00:13;;;;;;;3.57;2.83;;;19.90;75.50;;;;;;5039537;28;20854;-76
2024/02/16 03:02:43;;;;;;;2.87;2.67;;;19.80;75.30;;;;;;5038389;28;20459;-77
2024/02/16 03:05:12;;;;;;;3.03;2.73;;;19.80;75.50;;;;;;5034395;28;20518;-76
2024/02/16 03:07:40;;;;;;;2.87;2.77;;;19.80;75.60;;;;;;5030759;28;20459;-75
2024/02/16 03:10:10;;;;;;;2.63;2.47;;;19.80;75.40;;;;;;5023924;28;20420;-75
2024/02/16 03:12:38;;;;;;;3.93;2.70;;;19.80;75.50;;;;;;5034935;28;20446;-76
2024/02/16 03:15:09;;;;;;;2.57;2.37;;;19.80;75.30;;;;;;5042711;28;20521;-76
2024/02/16 03:17:37;;;;;;;6.50;2.80;;;19.80;75.20;;;;;;5030653;28;20546;-76
2024/02/16 03:20:07;;;;;;;5.40;3.03;;;19.80;75.30;;;;;;5038060;28;20501;-76
2024/02/16 03:22:35;;;;;;;2.83;2.63;;;19.80;75.30;;;;;;5033317;28;20447;-76
2024/02/16 03:25:04;;;;;;;4.10;2.80;;;19.80;75.30;;;;;;5036943;28;20511;-74
2024/02/16 03:27:33;;;;;;;2.93;2.37;;;19.80;75.20;;;;;;5042035;28;20470;-76
2024/02/16 03:30:02;;;;;;;3.37;3.03;;;19.80;75.20;;;;;;5038987;28;20443;-75
2024/02/16 03:32:32;;;;;;;3.00;2.80;;;19.80;75.20;;;;;;5045044;28;20550;-75
2024/02/16 03:35:00;;;;;;;3.83;2.70;;;19.80;75.00;;;;;;5030635;28;20447;-76
2024/02/16 03:37:28;;;;;;;2.60;2.40;;;19.80;75.00;;;;;;5030702;28;20460;-76
2024/02/16 03:39:57;;;;;;;3.70;2.93;;;19.80;75.30;;;;;;5033865;28;20541;-76
2024/02/16 03:42:24;;;;;;;2.80;2.60;;;19.80;75.20;;;;;;5034930;28;20471;-76
2024/02/16 03:44:52;;;;;;;3.23;2.47;;;19.80;75.20;;;;;;5024393;28;20447;-76
2024/02/16 03:47:20;;;;;;;4.13;3.40;;;19.80;75.20;;;;;;5029001;28;20464;-75
2024/02/16 03:49:49;;;;;;;5.93;3.30;;;19.80;74.90;;;;;;5024002;28;20446;-76
2024/02/16 03:52:17;;;;;;;5.80;3.57;;;19.70;74.80;;;;;;5039407;28;20470;-76
2024/02/16 03:54:48;;;;;;;4.70;3.90;;;19.70;75.20;;;;;;5023490;28;20595;-76
2024/02/16 03:57:16;;;;;;;6.90;4.00;;;19.70;75.00;;;;;;5030523;28;20934;-75
2024/02/16 03:59:44;;;;;;;4.27;3.60;;;19.70;75.10;;;;;;5035301;28;20507;-75
2024/02/16 04:02:13;;;;;;;5.23;4.70;;;19.70;74.90;;;;;;5027716;28;20542;-76
2024/02/16 04:04:41;;;;;;;7.30;5.13;;;19.70;74.90;;;;;;5028514;28;20435;-76
2024/02/16 04:07:10;;;;;;;6.53;5.10;;;19.70;74.90;;;;;;5030650;28;20467;-76
2024/02/16 04:09:38;;;;;;;7.20;5.20;;;19.70;74.90;;;;;;5030648;28;20457;-76
2024/02/16 04:12:07;;;;;;;9.70;5.80;;;19.70;74.90;;;;;;5041857;28;20435;-76
2024/02/16 04:14:34;;;;;;;7.10;5.37;;;19.70;75.00;;;;;;5034165;28;20449;-76
2024/02/16 04:17:03;;;;;;;9.47;6.20;;;19.70;74.90;;;;;;5040193;28;20471;-77
2024/02/16 04:19:31;;;;;;;8.50;5.93;;;19.70;74.90;;;;;;5042238;28;20560;-76
2024/02/16 04:21:59;;;;;;;7.90;5.90;;;19.70;74.90;;;;;;5033894;28;20440;-76
2024/02/16 04:24:29;;;;;;;10.87;6.20;;;19.60;74.70;;;;;;5035955;28;20435;-76
2024/02/16 04:26:56;;;;;;;8.00;6.60;;;19.70;74.80;;;;;;5040581;28;20462;-77
2024/02/16 04:29:25;;;;;;;9.67;6.10;;;19.60;74.70;;;;;;5037290;28;20427;-77
2024/02/16 04:31:52;;;;;;;7.70;5.63;;;19.60;75.40;;;;;;5034569;28;20425;-77
2024/02/16 04:34:21;;;;;;;9.67;6.00;;;19.60;74.70;;;;;;5042481;28;20467;-76
2024/02/16 04:36:49;;;;;;;9.97;6.57;;;19.60;74.50;;;;;;5045668;28;20455;-74
2024/02/16 04:39:19;;;;;;;8.33;6.33;;;19.60;74.60;;;;;;5036925;28;20475;-76
2024/02/16 04:41:48;;;;;;;7.93;6.20;;;19.60;74.60;;;;;;5046455;28;20946;-77
2024/02/16 04:44:17;;;;;;;11.37;6.37;;;19.60;74.60;;;;;;5041770;28;20513;-76
2024/02/16 04:46:45;;;;;;;8.27;6.30;;;19.60;74.70;;;;;;5047708;28;20467;-76
2024/02/16 04:49:12;;;;;;;9.00;6.40;;;19.60;74.70;;;;;;5037097;28;20497;-76
2024/02/16 04:51:41;;;;;;;7.80;6.17;;;19.60;74.60;;;;;;5033361;28;20452;-76
2024/02/16 04:54:09;;;;;;;7.83;6.13;;;19.50;74.70;;;;;;5038555;28;20450;-77
2024/02/16 04:56:39;;;;;;;7.53;5.90;;;19.60;74.80;;;;;;5035511;28;20463;-76
2024/02/16 04:59:08;;;;;;;9.13;6.60;;;19.50;74.50;;;;;;5039958;28;20482;-76
2024/02/16 05:01:36;;;;;;;10.00;6.57;;;19.50;74.50;;;;;;5032551;28;20541;-76
2024/02/16 05:04:04;;;;;;;8.10;6.47;;;19.50;74.50;;;;;;5033112;28;20444;-77
2024/02/16 05:06:33;;;;;;;7.53;6.27;;;19.50;74.50;;;;;;5032897;28;20509;-77
2024/02/16 05:09:01;;;;;;;7.90;5.70;;;19.50;74.50;;;;;;5033988;28;20452;-76
2024/02/16 05:11:32;;;;;;;9.13;6.00;;;19.50;74.60;;;;;;5029928;28;20479;-76
2024/02/16 05:14:00;;;;;;;8.70;6.30;;;19.50;74.30;;;;;;5036186;28;20519;-75
2024/02/16 05:16:31;;;;;;;7.30;5.97;;;19.50;74.30;;;;;;5033088;28;20471;-75
2024/02/16 05:18:59;;;;;;;6.60;5.23;;;19.50;74.10;;;;;;5041402;28;20468;-76
2024/02/16 05:21:27;;;;;;;8.97;5.97;;;19.50;74.50;;;;;;5039387;28;20480;-75
2024/02/16 05:23:55;;;;;;;7.97;6.00;;;19.50;74.80;;;;;;5040858;28;20443;-75
2024/02/16 05:26:23;;;;;;;7.60;5.77;;;19.50;74.10;;;;;;5044388;28;20463;-78
2024/02/16 05:28:51;;;;;;;7.60;6.20;;;19.50;74.10;;;;;;5027648;28;20440;-75
2024/02/16 05:31:19;;;;;;;7.47;6.00;;;19.50;74.30;;;;;;5032786;28;20501;-76
2024/02/16 05:33:49;;;;;;;7.40;5.97;;;19.50;74.40;;;;;;5039382;28;20524;-76
2024/02/16 05:36:20;;;;;;;8.50;5.43;;;19.50;74.10;;;;;;5041733;28;20463;-76
2024/02/16 05:38:48;;;;;;;6.87;5.73;;;19.50;74.10;;;;;;5037983;28;20524;-76
2024/02/16 05:41:17;;;;;;;6.90;5.37;;;19.40;74.20;;;;;;5040818;28;20475;-77
2024/02/16 05:43:45;;;;;;;9.80;5.13;;;19.40;74.00;;;;;;5040517;28;20494;-76
2024/02/16 05:46:14;;;;;;;6.53;5.17;;;19.50;74.10;;;;;;5038065;28;20502;-76
2024/02/16 05:48:42;;;;;;;7.23;4.97;;;19.40;73.80;;;;;;5040894;28;20503;-77
2024/02/16 05:51:12;;;;;;;7.60;5.40;;;19.40;74.00;;;;;;5031985;28;20498;-75
2024/02/16 05:53:40;;;;;;;6.30;4.60;;;19.40;73.90;;;;;;5034247;28;20479;-76
2024/02/16 05:56:10;;;;;;;5.40;4.80;;;19.40;74.00;;;;;;5032125;28;20463;-76
2024/02/16 05:58:38;;;;;;;10.17;5.20;;;19.40;74.10;;;;;;5040566;28;20537;-76
2024/02/16 06:01:06;;;;;;;6.30;4.90;;;19.50;73.90;;;;;;5031885;28;20525;-76
2024/02/16 06:03:34;;;;;;;8.23;4.90;;;19.40;73.70;;;;;;5032123;28;20443;-76
2024/02/16 06:06:02;;;;;;;9.60;4.90;;;19.40;73.70;;;;;;5031963;28;20471;-76
2024/02/16 06:08:32;;;;;;;6.13;4.73;;;19.40;73.50;;;;;;5027259;28;20450;-75
2024/02/16 06:11:01;;;;;;;5.73;4.27;;;19.40;73.80;;;;;;5032157;28;20531;-78
2024/02/16 06:13:30;;;;;;;6.80;4.90;;;19.40;73.80;;;;;;5031839;28;20458;-78
2024/02/16 06:15:58;;;;;;;4.90;4.40;;;19.40;73.90;;;;;;5052151;22;20505;-74
2024/02/16 06:18:29;;;;;;;5.10;4.30;;;19.40;73.60;;;;;;5032138;28;20439;-75
2024/02/16 06:20:57;;;;;;;7.90;4.90;;;19.40;73.90;;;;;;5030596;28;20486;-75
2024/02/16 06:23:25;;;;;;;5.77;4.87;;;19.40;73.60;;;;;;5039163;28;20439;-75
2024/02/16 06:25:54;;;;;;;4.97;4.47;;;19.40;73.40;;;;;;5032089;28;20446;-75
2024/02/16 06:28:22;;;;;;;6.40;4.60;;;19.40;73.60;;;;;;5033433;28;20470;-75
2024/02/16 06:30:50;;;;;;;4.90;4.37;;;19.40;73.60;;;;;;5031545;28;20511;-75
2024/02/16 06:33:18;;;;;;;5.67;4.47;;;19.40;73.60;;;;;;5033319;28;20597;-75
2024/02/16 06:35:50;;;;;;;4.57;4.17;;;19.40;73.60;;;;;;5031650;28;20459;-74
2024/02/16 06:38:18;;;;;;;5.93;4.20;;;19.40;73.80;;;;;;5031949;28;20447;-74
2024/02/16 06:40:46;;;;;;;5.50;4.60;;;19.40;73.50;;;;;;5031577;28;20467;-75
2024/02/16 06:43:15;;;;;;;6.20;4.40;;;19.40;73.20;;;;;;5031933;28;20506;-74
2024/02/16 06:45:44;;;;;;;5.47;4.37;;;19.40;73.50;;;;;;5031391;28;20482;-74
2024/02/16 06:48:11;;;;;;;4.07;3.47;;;19.40;73.50;;;;;;5027800;28;20447;-75
2024/02/16 06:50:40;;;;;;;4.20;3.70;;;19.40;73.40;;;;;;5031778;28;20454;-74
2024/02/16 06:53:08;;;;;;;5.73;4.80;;;19.40;73.40;;;;;;5031569;28;20447;-75
2024/02/16 06:55:36;;;;;;;6.90;3.83;;;19.40;73.20;;;;;;5030851;28;20443;-75
2024/02/16 06:58:04;;;;;;;4.17;3.83;;;19.40;73.40;;;;;;5024629;28;20459;-74
2024/02/16 07:00:35;;;;;;;4.57;4.13;;;19.40;73.30;;;;;;5031323;28;20471;-75
2024/02/16 07:03:03;;;;;;;6.20;4.23;;;19.40;73.20;;;;;;5028640;28;20547;-74
2024/02/16 07:05:32;;;;;;;3.93;3.63;;;19.40;73.10;;;;;;5026272;28;20443;-75
2024/02/16 07:08:06;;;;;;;5.00;4.10;;;19.40;73.10;;;;;;5028759;28;20958;-75
2024/02/16 07:10:34;;;;;;;4.37;3.70;;;19.40;73.10;;;;;;5031435;28;20443;-75
2024/02/16 07:13:03;;;;;;;7.37;4.13;;;19.50;73.00;;;;;;5030591;28;20450;-75
2024/02/16 07:15:32;;;;;;;7.90;4.07;;;19.50;73.00;;;;;;5027811;28;20443;-75
2024/02/16 07:18:03;;;;;;;4.00;3.60;;;19.50;72.60;;;;;;5031015;28;20503;-75
2024/02/16 07:20:32;;;;;;;4.20;3.80;;;19.50;72.50;;;;;;5016470;28;20428;-76
2024/02/16 07:23:00;;;;;;;5.27;3.50;;;19.50;72.60;;;;;;5031761;28;20981;-74
2024/02/16 07:25:29;;;;;;;4.27;3.87;;;19.60;72.60;;;;;;5028013;28;20456;-75
2024/02/16 07:27:57;;;;;;;4.17;3.50;;;19.60;72.40;;;;;;5035243;28;20499;-75
2024/02/16 07:30:25;;;;;;;4.73;3.67;;;19.60;72.30;;;;;;5030757;28;20478;-75
2024/02/16 07:33:08;;;;;;;5.07;4.23;;;19.60;72.30;;;;;;5029448;28;20439;-74
2024/02/16 07:35:36;;;;;;;4.00;3.60;;;19.60;72.20;;;;;;5030228;28;20511;-75
2024/02/16 07:38:05;;;;;;;4.23;3.20;;;19.60;72.20;;;;;;5030937;28;20550;-75
2024/02/16 07:40:33;;;;;;;3.40;3.10;;;19.70;72.10;;;;;;5023535;28;20531;-74
2024/02/16 07:43:01;;;;;;;5.73;3.90;;;19.70;72.00;;;;;;5026509;28;20451;-75
2024/02/16 07:45:29;;;;;;;5.50;3.30;;;19.70;71.80;;;;;;5034580;28;20482;-74
2024/02/16 07:47:57;;;;;;;3.93;3.53;;;19.70;71.70;;;;;;5026866;28;20546;-73
2024/02/16 07:50:27;;;;;;;4.63;3.43;;;19.70;71.70;;;;;;5035564;28;20475;-74
2024/02/16 07:52:56;;;;;;;5.40;3.77;;;19.70;71.50;;;;;;5035288;28;20486;-75
2024/02/16 07:55:24;;;;;;;3.57;3.27;;;19.70;71.40;;;;;;5036283;28;20539;-74
2024/02/16 07:57:52;;;;;;;4.10;3.50;;;19.70;71.50;;;;;;5032534;28;20467;-74
2024/02/16 08:00:20;;;;;;;4.23;3.40;;;19.80;71.40;;;;;;5033375;28;20480;-73
2024/02/16 08:02:48;;;;;;;4.47;3.37;;;19.80;71.30;;;;;;5036692;28;20471;-75
2024/02/16 08:05:18;;;;;;;5.57;3.37;;;19.80;71.10;;;;;;5033062;28;20443;-75
2024/02/16 08:07:48;;;;;;;5.83;3.53;;;19.80;71.10;;;;;;5034267;28;20495;-75
2024/02/16 08:10:20;;;;;;;3.53;3.23;;;19.80;71.10;;;;;;5032883;28;20447;-75
2024/02/16 08:12:48;;;;;;;3.57;3.27;;;19.90;71.00;;;;;;5034031;28;20435;-75
2024/02/16 08:15:22;;;;;;;5.47;3.10;;;19.90;70.90;;;;;;5034492;28;20435;-75
2024/02/16 08:17:51;;;;;;;3.73;3.10;;;19.90;70.90;;;;;;5032968;28;21065;-75
2024/02/16 08:20:20;;;;;;;3.10;2.90;;;19.90;70.80;;;;;;5034845;28;20471;-75
2024/02/16 08:22:50;;;;;;;5.33;2.87;;;20.00;71.00;;;;;;5030593;28;20464;-76
2024/02/16 08:25:18;;;;;;;3.33;3.10;;;20.00;70.80;;;;;;5028938;28;20934;-76
2024/02/16 08:27:46;;;;;;;3.90;3.50;;;20.00;70.60;;;;;;5026122;28;20528;-76
2024/02/16 08:30:14;;;;;;;6.17;3.30;;;20.10;70.70;;;;;;5030575;28;20450;-75
2024/02/16 08:32:42;;;;;;;3.60;2.77;;;20.10;70.50;;;;;;5033854;28;20435;-76
2024/02/16 08:35:13;;;;;;;3.17;2.87;;;20.10;70.40;;;;;;5033829;28;20439;-74
2024/02/16 08:37:42;;;;;;;3.57;3.27;;;20.10;70.30;;;;;;5030679;28;20466;-72
2024/02/16 08:40:14;;;;;;;4.57;3.17;;;20.10;70.50;;;;;;5032553;28;20465;-72
2024/02/16 08:42:42;;;;;;;3.77;3.30;;;20.20;70.40;;;;;;5030534;28;20482;-72
2024/02/16 08:45:12;;;;;;;3.97;2.70;;;20.20;70.10;;;;;;5033569;28;20443;-73
2024/02/16 08:47:41;;;;;;;2.87;2.70;;;20.30;70.00;;;;;;5033293;28;20517;-73
2024/02/16 08:50:10;;;;;;;3.47;3.17;;;20.30;69.70;;;;;;5033297;28;20538;-74
2024/02/16 08:52:38;;;;;;;3.60;3.30;;;20.40;69.90;;;;;;5030815;28;20466;-73
2024/02/16 08:55:07;;;;;;;3.10;2.80;;;20.40;69.70;;;;;;5024653;28;20474;-73
2024/02/16 08:57:37;;;;;;;3.40;3.03;;;20.50;69.50;;;;;;5033961;28;20555;-76
2024/02/16 09:00:07;;;;;;;3.50;2.97;;;20.50;69.50;;;;;;5031336;28;20450;-75
2024/02/16 09:02:35;;;;;;;3.57;2.73;;;20.50;69.40;;;;;;5028440;28;20525;-76
2024/02/16 09:05:03;;;;;;;3.37;3.07;;;20.60;69.50;;;;;;5032863;28;20456;-76
2024/02/16 09:07:31;;;;;;;3.13;2.80;;;20.60;69.60;;;;;;5027077;28;20472;-77
2024/02/16 09:10:00;;;;;;;3.07;2.87;;;20.60;69.40;;;;;;5027860;28;20480;-77
2024/02/16 09:12:28;;;;;;;3.97;2.83;;;20.70;69.40;;;;;;5033385;28;20431;-76
2024/02/16 09:14:57;;;;;;;3.40;3.10;;;20.70;69.40;;;;;;5032983;28;20427;-76
2024/02/16 09:17:26;;;;;;;4.43;2.80;;;20.70;69.30;;;;;;5032291;28;20545;-76
2024/02/16 09:19:54;;;;;;;4.60;3.20;;;20.80;69.20;;;;;;5031535;28;20448;-76
2024/02/16 09:22:22;;;;;;;7.07;3.20;;;20.80;69.40;;;;;;5032294;28;20468;-76
2024/02/16 09:25:05;;;;;;;3.63;3.27;;;20.90;69.20;;;;;;5025640;28;20467;-76
2024/02/16 09:27:33;;;;;;;2.77;2.57;;;20.80;69.10;;;;;;5033237;28;20882;-76
2024/02/16 09:30:03;;;;;;;3.63;2.93;;;20.80;69.20;;;;;;5031482;28;20451;-76
2024/02/16 09:32:31;;;;;;;3.03;2.77;;;20.80;69.10;;;;;;5027421;28;20436;-76
2024/02/16 09:34:59;;;;;;;2.93;2.60;;;20.90;69.10;;;;;;5031873;28;20455;-76
2024/02/16 09:37:27;;;;;;;3.10;2.77;;;20.90;69.20;;;;;;5032799;28;20462;-76
2024/02/16 09:39:55;;;;;;;3.17;2.70;;;21.00;69.30;;;;;;5031550;28;20434;-75
2024/02/16 09:42:24;;;;;;;4.80;2.90;;;21.00;69.40;;;;;;5032350;28;20472;-73
2024/02/16 09:44:52;;;;;;;2.67;2.47;;;21.10;69.20;;;;;;5028927;28;20447;-73
2024/02/16 09:47:22;;;;;;;3.10;2.90;;;21.10;69.20;;;;;;5033709;28;20468;-72
2024/02/16 09:49:50;;;;;;;3.70;2.63;;;21.10;69.20;;;;;;5041795;28;20420;-73
2024/02/16 09:52:18;;;;;;;4.10;2.80;;;21.10;69.60;;;;;;5055682;28;20435;-72
2024/02/16 09:54:47;;;;;;;2.80;2.60;;;21.10;69.40;;;;;;5050058;28;20473;-73
2024/02/16 09:57:18;;;;;;;3.30;3.00;;;21.10;69.20;;;;;;5035431;28;20463;-73
2024/02/16 09:59:47;;;;;;;3.53;3.00;;;21.10;69.30;;;;;;5028819;28;20436;-73
2024/02/16 10:02:17;;;;;;;4.03;2.63;;;21.20;69.70;;;;;;5037036;28;20499;-73
2024/02/16 10:04:46;;;;;;;4.73;2.90;;;21.20;69.60;;;;;;5025666;28;20449;-73
2024/02/16 10:07:15;;;;;;;3.53;3.23;;;21.10;69.60;;;;;;5026272;28;20493;-73
2024/02/16 10:09:43;;;;;;;2.93;2.73;;;21.20;69.70;;;;;;5026929;28;20444;-73
2024/02/16 10:12:12;;;;;;;4.13;2.90;;;21.20;69.80;;;;;;5033236;28;20447;-74
2024/02/16 10:14:42;;;;;;;2.57;2.47;;;21.20;69.90;;;;;;5030140;28;20439;-74
2024/02/16 10:17:10;;;;;;;2.97;2.67;;;21.20;69.60;;;;;;5033008;28;20483;-74
2024/02/16 10:19:39;;;;;;;3.10;2.80;;;21.20;69.80;;;;;;5029957;28;20450;-75
2024/02/16 10:22:12;;;;;;;4.80;2.40;;;21.30;69.70;;;;;;5032173;28;20578;-74
2024/02/16 10:24:42;;;;;;;2.73;2.53;;;21.30;69.80;;;;;;5031850;28;20451;-74
2024/02/16 10:27:15;;;;;;;3.03;2.73;;;21.40;69.60;;;;;;5031506;28;20441;-74
2024/02/16 10:29:44;;;;;;;3.10;2.67;;;21.60;69.80;;;;;;5031728;28;20468;-75
2024/02/16 10:32:12;;;;;;;4.33;3.17;;;21.70;69.60;;;;;;5031259;28;20542;-76
2024/02/16 10:34:40;;;;;;;2.53;2.43;;;21.80;69.20;;;;;;5030541;28;20493;-76
2024/02/16 10:37:08;;;;;;;2.90;2.70;;;21.90;69.10;;;;;;5031522;28;20437;-74
2024/02/16 10:39:38;;;;;;;3.30;2.97;;;22.00;69.30;;;;;;5029427;28;20451;-75
2024/02/16 10:42:06;;;;;;;5.40;2.90;;;22.10;68.90;;;;;;5030816;28;20443;-76
2024/02/16 10:44:35;;;;;;;2.50;2.37;;;22.10;68.70;;;;;;5031186;28;20483;-76
2024/02/16 10:47:04;;;;;;;7.73;2.70;;;22.20;68.50;;;;;;5030934;28;20459;-76
2024/02/16 10:49:32;;;;;;;3.80;2.77;;;22.20;68.50;;;;;;5019324;28;20478;-75
2024/02/16 10:52:01;;;;;;;3.20;2.93;;;22.20;68.60;;;;;;5024430;28;20439;-75
2024/02/16 10:54:37;;;;;;;3.07;2.77;;;22.20;68.50;;;;;;5029601;28;20441;-73
2024/02/16 10:57:09;;;;;;;3.23;2.57;;;22.10;68.40;;;;;;5025344;28;20474;-74
2024/02/16 10:59:43;;;;;;;3.47;3.17;;;22.10;69.30;;;;;;5028817;28;20440;-75
2024/02/16 11:02:11;;;;;;;3.43;3.13;;;22.00;68.50;;;;;;5030709;28;20527;-75
2024/02/16 11:04:39;;;;;;;4.10;2.73;;;22.00;69.00;;;;;;5032000;28;20474;-75
2024/02/16 11:07:11;;;;;;;4.03;3.37;;;22.00;69.00;;;;;;5031984;28;20558;-75
2024/02/16 11:09:40;;;;;;;5.17;3.20;;;22.10;69.80;;;;;;5032269;28;20489;-74
2024/02/16 11:12:13;;;;;;;3.30;3.00;;;22.20;69.20;;;;;;5043422;28;20418;-74
2024/02/16 11:14:42;;;;;;;3.40;3.10;;;22.30;69.00;;;;;;5045094;28;20430;-74
2024/02/16 11:17:10;;;;;;;3.03;2.70;;;22.40;68.60;;;;;;5042600;28;20471;-74
2024/02/16 11:19:38;;;;;;;3.27;2.97;;;22.40;68.70;;;;;;5046585;28;20454;-73
2024/02/16 11:22:08;;;;;;;3.37;2.93;;;22.50;68.50;;;;;;5045755;28;20515;-75
2024/02/16 11:24:37;;;;;;;3.40;3.10;;;22.60;68.20;;;;;;5045933;28;20495;-74
2024/02/16 11:27:05;;;;;;;3.10;2.80;;;22.60;68.00;;;;;;5031679;28;20488;-75
2024/02/16 11:29:34;;;;;;;3.43;2.63;;;22.60;68.20;;;;;;5032215;28;20419;-74
2024/02/16 11:32:03;;;;;;;3.50;2.80;;;22.60;68.20;;;;;;5032066;28;20459;-74
2024/02/16 11:34:31;;;;;;;4.60;3.37;;;22.70;68.20;;;;;;5024334;28;20551;-74
2024/02/16 11:36:59;;;;;;;4.53;3.03;;;22.70;68.20;;;;;;5032053;28;20460;-74
2024/02/16 11:39:27;;;;;;;3.83;3.13;;;22.70;68.00;;;;;;5031996;28;20431;-75
2024/02/16 11:42:01;;;;;;;3.90;2.90;;;22.80;68.00;;;;;;5031330;28;20414;-74
2024/02/16 11:44:31;;;;;;;6.07;3.40;;;22.80;67.80;;;;;;5030999;28;20522;-75
2024/02/16 11:47:02;;;;;;;4.17;3.30;;;22.80;67.80;;;;;;5032646;28;20498;-75
2024/02/16 11:49:30;;;;;;;5.70;3.40;;;22.80;67.80;;;;;;5028291;28;20510;-75
2024/02/16 11:52:00;;;;;;;3.20;3.00;;;22.80;67.50;;;;;;5027047;28;20522;-75
2024/02/16 11:54:29;;;;;;;5.73;4.40;;;22.80;67.60;;;;;;5032776;28;20465;-78
2024/02/16 11:56:58;;;;;;;13.77;6.30;;;22.70;62.60;;;;;;5034323;28;20908;-78
2024/02/16 11:59:25;;;;;;;8.10;4.87;;;21.40;63.80;;;;;;5033911;28;20470;-78
2024/02/16 12:01:54;;;;;;;6.73;4.73;;;20.10;65.90;;;;;;5032914;28;20444;-76
2024/02/16 12:04:24;;;;;;;15.90;5.00;;;19.60;69.30;;;;;;5028123;28;20532;-77
2024/02/16 12:06:53;;;;;;;5.53;4.63;;;19.00;71.20;;;;;;5022798;28;20486;-77
2024/02/16 12:09:21;;;;;;;5.50;4.37;;;18.70;74.40;;;;;;5021245;28;20463;-77
2024/02/16 12:11:49;;;;;;;9.73;4.63;;;19.50;75.40;;;;;;5031353;28;20490;-76
2024/02/16 12:14:18;;;;;;;6.13;3.83;;;20.30;72.70;;;;;;5032127;28;20833;-78
2024/02/16 12:16:48;;;;;;;4.73;3.97;;;20.80;70.30;;;;;;5032441;28;20513;-75
2024/02/16 12:19:16;;;;;;;4.80;3.60;;;21.20;69.00;;;;;;5030189;28;20474;-74
2024/02/16 12:21:45;;;;;;;6.47;3.60;;;21.50;67.60;;;;;;5031091;28;20443;-76
2024/02/16 12:24:13;;;;;;;4.93;3.70;;;21.60;66.90;;;;;;5030486;28;20525;-77
2024/02/16 12:26:42;;;;;;;9.07;3.77;;;21.80;66.50;;;;;;5032054;28;20650;-76
2024/02/16 12:29:12;;;;;;;4.93;3.50;;;21.90;66.00;;;;;;5032377;28;20422;-74
2024/02/16 12:31:41;;;;;;;9.43;4.10;;;21.90;65.70;;;;;;5035031;28;20446;-76
2024/02/16 12:34:09;;;;;;;3.23;2.93;;;22.00;65.60;;;;;;5035899;28;20475;-75
2024/02/16 12:36:37;;;;;;;3.70;3.23;;;22.00;65.30;;;;;;5035825;28;20455;-75
2024/02/16 12:39:06;;;;;;;9.13;3.37;;;22.10;65.40;;;;;;5035697;28;20454;-76
2024/02/16 12:41:34;;;;;;;4.10;3.30;;;22.10;65.30;;;;;;5034954;28;20527;-76
2024/02/16 12:44:02;;;;;;;7.47;3.10;;;22.20;65.30;;;;;;5028128;28;20472;-76
2024/02/16 12:46:30;;;;;;;3.37;3.07;;;22.10;65.10;;;;;;5036411;28;20483;-76
2024/02/16 12:48:58;;;;;;;3.43;3.13;;;22.20;65.30;;;;;;5037003;28;20445;-75
2024/02/16 12:51:27;;;;;;;3.13;2.90;;;22.20;65.30;;;;;;5034599;28;20960;-75
2024/02/16 12:53:55;;;;;;;3.90;3.30;;;22.20;65.20;;;;;;5035417;28;20474;-76